Time;durP1;ratioP1;P1;durP2;ratioP2;P2;SDS_P1;SDS_P2;PMS_P1;PMS_P2;Temp;Humidity;BMP_temperature;BMP_pressure;BME280_temperature;BME280_humidity;BME280_pressure;Samples;Min_cycle;Max_cycle;Signal;HPM_P1;HPM_P2
2022/06/21 00:00:59;;;;;;;2.33;1.52;;;;;;;14.05;73.15;96022.88;2025578;29;20055;-58
2022/06/21 00:02:01;;;;;;;7.30;1.60;;;;;;;14.03;73.72;96027.34;2033598;29;20052;-59
2022/06/21 00:03:05;;;;;;;4.82;1.85;;;;;;;14.05;73.34;96020.28;2033682;29;20052;-58
2022/06/21 00:04:06;;;;;;;2.60;1.70;;;;;;;14.08;73.42;96022.69;2025971;29;20051;-59
2022/06/21 00:05:18;;;;;;;3.42;1.88;;;;;;;14.03;74.28;96016.91;2033514;29;20418;-59
2022/06/21 00:06:21;;;;;;;2.17;1.58;;;;;;;13.99;74.02;96010.22;2041235;29;20052;-58
2022/06/21 00:07:26;;;;;;;4.10;1.67;;;;;;;13.96;74.43;96013.00;2026143;29;20065;-58
2022/06/21 00:08:30;;;;;;;5.03;1.67;;;;;;;14.01;74.69;96010.97;2034115;29;20480;-59
2022/06/21 00:09:31;;;;;;;2.85;1.60;;;;;;;14.05;74.67;96015.06;2040505;29;20048;-59
2022/06/21 00:10:34;;;;;;;3.45;2.00;;;;;;;14.05;74.67;96020.28;2033512;29;20513;-59
2022/06/21 00:11:35;;;;;;;2.80;1.50;;;;;;;13.95;74.84;96013.94;2033092;29;20047;-59
2022/06/21 00:12:36;;;;;;;2.75;1.80;;;;;;;13.88;74.83;96021.31;2033188;29;20055;-60
2022/06/21 00:13:37;;;;;;;2.70;1.60;;;;;;;13.88;73.82;96019.53;2033404;29;20048;-58
2022/06/21 00:14:40;;;;;;;2.47;1.80;;;;;;;13.85;73.38;96017.09;2033017;29;20075;-57
2022/06/21 00:15:41;;;;;;;3.95;1.70;;;;;;;13.87;72.96;96023.06;2033312;29;20050;-58
2022/06/21 00:16:42;;;;;;;4.90;1.70;;;;;;;13.74;73.00;96022.13;2033176;29;20048;-59
2022/06/21 00:17:47;;;;;;;2.67;1.50;;;;;;;13.73;73.19;96017.81;2033021;29;20071;-59
2022/06/21 00:18:48;;;;;;;2.63;1.30;;;;;;;13.82;73.08;96014.69;2033477;29;20078;-58
2022/06/21 00:19:50;;;;;;;4.25;1.77;;;;;;;13.73;72.93;96017.00;2040869;29;20043;-58
2022/06/21 00:20:52;;;;;;;2.10;1.42;;;;;;;13.70;72.65;96015.41;2041156;29;20051;-58
2022/06/21 00:21:53;;;;;;;4.18;1.63;;;;;;;13.68;72.92;96017.25;2048541;29;20054;-58
2022/06/21 00:22:54;;;;;;;2.20;1.25;;;;;;;13.69;72.70;96016.34;2040627;29;20043;-57
2022/06/21 00:23:56;;;;;;;2.80;1.40;;;;;;;13.66;72.62;96019.13;2025530;29;20055;-57
2022/06/21 00:24:57;;;;;;;3.05;1.52;;;;;;;13.67;71.07;96018.19;2032738;29;20506;-57
2022/06/21 00:25:58;;;;;;;3.05;1.33;;;;;;;13.59;71.19;96018.63;2033249;29;20052;-57
2022/06/21 00:27:00;;;;;;;2.42;1.48;;;;;;;13.55;71.21;96021.50;2032633;29;20442;-59
2022/06/21 00:28:01;;;;;;;3.05;1.42;;;;;;;13.59;71.31;96023.84;2048513;28;20055;-58
2022/06/21 00:29:02;;;;;;;3.28;1.67;;;;;;;13.55;71.34;96017.16;2048147;29;20410;-58
2022/06/21 00:30:04;;;;;;;2.70;1.38;;;;;;;13.54;71.27;96018.06;2040442;29;20458;-58
2022/06/21 00:31:14;;;;;;;3.85;1.58;;;;;;;13.59;71.37;96023.84;2041058;29;20051;-58
2022/06/21 00:32:17;;;;;;;3.83;1.50;;;;;;;13.61;71.88;96029.00;2034507;29;20072;-57
2022/06/21 00:33:19;;;;;;;1.67;1.10;;;;;;;13.58;71.30;96026.53;2032918;29;20064;-59
2022/06/21 00:34:20;;;;;;;3.15;1.25;;;;;;;13.51;71.41;96020.88;2041187;29;20051;-58
2022/06/21 00:35:22;;;;;;;3.47;1.27;;;;;;;13.48;72.28;96017.59;2040711;29;20055;-58
2022/06/21 00:36:27;;;;;;;4.80;1.52;;;;;;;13.59;71.64;96023.03;2033261;29;20438;-59
2022/06/21 00:37:28;;;;;;;2.28;1.27;;;;;;;13.53;72.13;96023.41;2041396;29;20047;-58
2022/06/21 00:38:32;;;;;;;2.45;1.27;;;;;;;13.45;73.01;96022.06;2040524;29;20047;-58
2022/06/21 00:39:33;;;;;;;2.75;1.30;;;;;;;13.45;72.38;96027.28;2040802;29;20413;-58
2022/06/21 00:40:34;;;;;;;10.32;1.48;;;;;;;13.42;72.92;96026.63;2033431;29;20059;-57
2022/06/21 00:41:50;;;;;;;2.42;1.60;;;;;;;13.50;72.45;96031.38;2025151;29;20052;-59
2022/06/21 00:42:55;;;;;;;3.42;1.67;;;;;;;13.41;72.53;96030.97;2040742;29;20506;-59
2022/06/21 00:43:56;;;;;;;2.75;1.33;;;;;;;13.37;73.33;96031.28;2040512;29;20059;-59
2022/06/21 00:45:01;;;;;;;5.65;1.80;;;;;;;13.42;72.57;96021.41;2033060;29;20043;-59
2022/06/21 00:46:02;;;;;;;2.40;1.45;;;;;;;13.46;72.02;96034.16;2040848;29;20047;-59
2022/06/21 00:47:03;;;;;;;2.08;1.30;;;;;;;13.40;71.41;96034.53;2048256;29;20560;-58
2022/06/21 00:48:07;;;;;;;4.32;1.63;;;;;;;13.32;72.06;96031.53;2045663;29;20058;-59
2022/06/21 00:49:19;;;;;;;3.35;1.40;;;;;;;13.35;71.79;96028.72;2055825;28;20552;-58
2022/06/21 00:50:26;;;;;;;2.10;1.00;;;;;;;13.46;70.40;96028.94;2046863;29;20051;-58
2022/06/21 00:51:32;;;;;;;3.30;1.25;;;;;;;13.44;70.91;96029.97;2048799;28;20055;-57
2022/06/21 00:52:40;;;;;;;1.95;1.10;;;;;;;13.34;71.38;96032.28;2047031;29;20062;-59
2022/06/21 00:53:44;;;;;;;2.17;1.10;;;;;;;13.30;69.87;96033.38;2034161;29;20059;-60
2022/06/21 00:54:54;;;;;;;3.20;1.27;;;;;;;13.37;69.71;96029.50;2048000;29;20042;-58
2022/06/21 00:56:19;;;;;;;1.85;1.20;;;;;;;13.40;69.31;96024.09;2054986;28;20047;-59
2022/06/21 00:57:21;;;;;;;2.67;1.10;;;;;;;13.32;69.22;96026.31;2034254;29;20048;-58
2022/06/21 00:58:25;;;;;;;3.05;0.90;;;;;;;13.29;69.47;96021.28;2040657;29;20062;-58
2022/06/21 00:59:30;;;;;;;1.85;1.00;;;;;;;13.30;69.85;96028.16;2047773;29;20058;-58
2022/06/21 01:00:35;;;;;;;2.25;1.38;;;;;;;13.34;68.92;96023.59;2040752;29;20078;-58
2022/06/21 01:01:36;;;;;;;2.90;1.02;;;;;;;13.36;68.50;96021.75;2040379;29;20059;-58
2022/06/21 01:02:37;;;;;;;3.15;1.10;;;;;;;13.30;69.01;96028.16;2040659;29;20078;-58
2022/06/21 01:03:41;;;;;;;4.28;1.40;;;;;;;13.35;68.55;96027.91;2048747;28;20050;-58
2022/06/21 01:04:45;;;;;;;2.70;1.00;;;;;;;13.30;69.27;96024.72;2056072;28;20448;-59
2022/06/21 01:05:47;;;;;;;3.17;1.10;;;;;;;13.34;67.85;96026.19;2048111;28;20122;-58
2022/06/21 01:06:51;;;;;;;1.77;1.17;;;;;;;13.32;67.98;96026.31;2032170;29;20048;-58
2022/06/21 01:07:53;;;;;;;2.33;1.33;;;;;;;13.27;68.02;96033.56;2033605;29;20048;-58
2022/06/21 01:08:57;;;;;;;3.55;1.30;;;;;;;13.21;68.38;96039.09;2040107;29;20055;-58
2022/06/21 01:10:03;;;;;;;1.73;1.05;;;;;;;13.18;69.44;96034.06;2033284;29;20044;-59
2022/06/21 01:11:08;;;;;;;2.30;1.30;;;;;;;13.10;69.59;96026.66;2050591;28;20055;-58
2022/06/21 01:12:12;;;;;;;3.50;1.30;;;;;;;13.17;69.45;96034.97;2047357;29;20070;-58
2022/06/21 01:13:16;;;;;;;2.58;1.27;;;;;;;13.15;69.45;96034.22;2041156;29;20058;-57
2022/06/21 01:14:18;;;;;;;6.38;1.48;;;;;;;13.16;70.00;96038.50;2055973;28;20061;-58
2022/06/21 01:15:22;;;;;;;2.30;1.17;;;;;;;13.11;70.05;96033.56;2040341;29;20517;-57
2022/06/21 01:16:24;;;;;;;2.75;1.40;;;;;;;13.13;69.37;96030.88;2032493;29;20071;-57
2022/06/21 01:17:25;;;;;;;1.98;1.13;;;;;;;13.10;69.22;96036.25;2047856;29;20051;-58
2022/06/21 01:18:26;;;;;;;2.28;0.95;;;;;;;13.08;69.46;96043.31;2047852;29;20051;-58
2022/06/21 01:19:37;;;;;;;7.00;1.33;;;;;;;13.04;69.73;96040.03;2040791;29;20043;-59
2022/06/21 01:20:40;;;;;;;4.78;1.45;;;;;;;13.07;69.56;96037.28;2041067;29;20039;-58
2022/06/21 01:21:42;;;;;;;3.75;1.40;;;;;;;13.14;69.28;96027.31;2033125;29;20044;-59
2022/06/21 01:23:05;;;;;;;1.63;1.10;;;;;;;13.02;69.98;96029.69;2040245;29;20545;-59
2022/06/21 01:24:28;;;;;;;1.55;1.08;;;;;;;12.95;70.26;96035.34;2038846;29;20051;-58
2022/06/21 01:25:59;;;;;;;1.65;1.10;;;;;;;12.93;70.42;96031.97;2045189;29;20048;-58
2022/06/21 01:27:02;;;;;;;3.67;1.50;;;;;;;12.87;71.10;96033.16;2043496;29;20550;-58
2022/06/21 01:28:03;;;;;;;2.78;1.17;;;;;;;12.89;71.33;96028.72;2039906;29;20056;-59
2022/06/21 01:29:06;;;;;;;2.00;1.20;;;;;;;12.90;70.49;96030.38;2040250;29;20056;-58
2022/06/21 01:30:08;;;;;;;2.85;1.30;;;;;;;12.93;71.21;96030.19;2040446;29;20036;-58
2022/06/21 01:31:09;;;;;;;3.97;1.45;;;;;;;12.92;70.65;96031.16;2032750;29;20056;-58
2022/06/21 01:32:11;;;;;;;3.38;1.50;;;;;;;12.84;71.81;96029.91;2040192;29;20047;-59
2022/06/21 01:33:13;;;;;;;3.53;1.40;;;;;;;12.91;69.67;96026.00;2047746;28;20560;-58
2022/06/21 01:34:18;;;;;;;4.32;1.40;;;;;;;12.84;68.59;96022.91;2047810;29;20063;-59
2022/06/21 01:35:28;;;;;;;1.80;1.13;;;;;;;12.86;69.04;96022.84;2032597;29;20063;-59
2022/06/21 01:36:32;;;;;;;4.72;1.30;;;;;;;12.84;68.61;96025.53;2034870;29;20478;-60
2022/06/21 01:37:33;;;;;;;2.08;1.35;;;;;;;12.84;68.38;96025.53;2024435;29;20056;-60
2022/06/21 01:38:43;;;;;;;2.95;1.50;;;;;;;12.83;68.91;96034.28;2032522;29;20051;-59
2022/06/21 01:40:03;;;;;;;2.33;1.15;;;;;;;12.79;69.72;96028.38;2038728;29;20047;-59
2022/06/21 01:41:08;;;;;;;2.05;1.20;;;;;;;12.73;70.10;96026.13;2044773;28;20043;-58
2022/06/21 01:42:11;;;;;;;4.70;1.63;;;;;;;12.77;70.36;96022.41;2055020;28;20464;-58
2022/06/21 01:43:15;;;;;;;3.30;1.15;;;;;;;12.83;69.82;96029.06;2032921;29;20055;-56
2022/06/21 01:44:19;;;;;;;3.58;1.10;;;;;;;12.78;69.89;96026.69;2033415;29;20433;-58
2022/06/21 01:45:24;;;;;;;6.57;1.52;;;;;;;12.75;70.07;96018.19;2040267;29;20051;-58
2022/06/21 01:46:28;;;;;;;1.33;1.00;;;;;;;12.85;69.60;96024.56;2048973;28;20054;-59
2022/06/21 01:47:35;;;;;;;2.83;1.27;;;;;;;12.71;69.42;96019.31;2047534;29;20069;-58
2022/06/21 01:48:39;;;;;;;3.85;1.33;;;;;;;12.67;69.29;96021.25;2033095;29;20812;-58
2022/06/21 01:49:43;;;;;;;3.05;1.20;;;;;;;12.63;69.17;96021.50;2032288;29;20059;-58
2022/06/21 01:50:45;;;;;;;1.65;0.93;;;;;;;12.61;69.74;96018.97;2026551;29;20429;-58
2022/06/21 01:51:50;;;;;;;4.60;1.10;;;;;;;12.58;68.83;96024.34;2032912;29;20047;-59
2022/06/21 01:52:53;;;;;;;2.03;1.33;;;;;;;12.58;69.15;96014.75;2040085;29;20054;-58
2022/06/21 01:53:54;;;;;;;1.60;1.00;;;;;;;12.56;68.39;96018.38;2032780;29;20048;-58
2022/06/21 01:54:59;;;;;;;2.72;1.35;;;;;;;12.51;69.23;96016.03;2017065;29;20052;-58
2022/06/21 01:56:04;;;;;;;2.92;1.05;;;;;;;12.47;69.51;96016.28;2026156;29;20095;-57
2022/06/21 01:57:07;;;;;;;5.03;1.40;;;;;;;12.49;69.50;96010.06;2025645;29;20060;-58
2022/06/21 01:58:13;;;;;;;3.53;1.52;;;;;;;12.51;69.28;96018.63;2032998;29;20059;-59
2022/06/21 01:59:21;;;;;;;2.92;1.30;;;;;;;12.48;69.59;96005.78;2047920;29;20047;-59
2022/06/21 02:00:23;;;;;;;4.50;1.10;;;;;;;12.43;70.19;96010.41;2032487;29;20047;-58
2022/06/21 02:01:28;;;;;;;2.75;1.10;;;;;;;12.40;70.30;96012.31;2025678;29;20063;-58
2022/06/21 02:02:34;;;;;;;3.95;1.38;;;;;;;12.34;70.55;96010.88;2032406;29;20716;-59
2022/06/21 02:03:36;;;;;;;3.22;1.40;;;;;;;12.25;70.33;96007.03;2033177;29;20063;-59
2022/06/21 02:04:54;;;;;;;1.40;1.00;;;;;;;12.31;70.04;96000.63;2040355;29;20056;-58
2022/06/21 02:05:56;;;;;;;3.83;1.10;;;;;;;12.32;70.69;96005.78;2034669;29;20044;-58
2022/06/21 02:07:02;;;;;;;1.75;1.15;;;;;;;12.34;70.68;96003.91;2032918;29;20056;-59
2022/06/21 02:08:10;;;;;;;2.00;1.20;;;;;;;12.26;69.99;96005.25;2024935;29;20649;-59
2022/06/21 02:09:19;;;;;;;4.53;1.70;;;;;;;12.21;70.77;96000.28;2026654;29;20059;-59
2022/06/21 02:10:24;;;;;;;4.22;1.50;;;;;;;12.18;71.07;96010.88;2033470;29;20518;-59
2022/06/21 02:11:28;;;;;;;3.05;1.42;;;;;;;12.19;70.58;96007.34;2033316;29;20052;-58
2022/06/21 02:12:29;;;;;;;2.10;1.10;;;;;;;12.18;70.94;96010.03;2033042;29;20048;-58
2022/06/21 02:13:38;;;;;;;2.17;1.15;;;;;;;12.23;71.71;96003.66;2032798;29;20048;-58
2022/06/21 02:15:50;;;;;;;3.88;1.38;;;;;;;12.12;72.02;95986.00;2040061;29;20055;-57
2022/06/21 02:16:52;;;;;;;;;;;;;;;12.13;71.53;95995.50;2033948;29;20082;-59
2022/06/21 02:17:53;;;;;;;3.45;1.40;;;;;;;12.11;71.87;95992.16;2024931;29;20397;-57
2022/06/21 02:18:55;;;;;;;3.42;0.90;;;;;;;12.12;71.07;95991.22;2033608;29;20558;-58
2022/06/21 02:20:36;;;;;;;3.03;1.20;;;;;;;12.08;70.64;95996.66;2041637;29;20051;-57
2022/06/21 02:21:39;;;;;;;1.73;1.23;;;;;;;12.10;70.39;95994.81;2041485;29;20047;-58
2022/06/21 02:22:40;;;;;;;3.13;1.23;;;;;;;12.13;70.06;95986.84;2034451;29;20059;-58
2022/06/21 02:23:41;;;;;;;4.68;1.40;;;;;;;12.18;69.42;95984.00;2041394;29;20048;-58
2022/06/21 02:24:42;;;;;;;2.92;1.10;;;;;;;12.12;69.52;95986.00;2041816;29;20052;-58
2022/06/21 02:25:44;;;;;;;2.78;1.10;;;;;;;12.09;68.79;95980.97;2033725;29;20052;-57
2022/06/21 02:26:45;;;;;;;2.88;1.42;;;;;;;12.09;69.31;95983.56;2041772;29;20047;-57
2022/06/21 02:27:46;;;;;;;2.13;0.90;;;;;;;12.10;68.40;95989.59;2062683;23;20044;-69
2022/06/21 02:28:48;;;;;;;2.75;1.38;;;;;;;12.08;68.87;95992.31;2053786;28;20058;-63
2022/06/21 02:29:51;;;;;;;2.30;1.30;;;;;;;12.09;68.48;95988.78;2041975;29;20048;-61
2022/06/21 02:30:53;;;;;;;2.10;1.30;;;;;;;12.15;69.39;95990.22;2049672;28;20047;-64
2022/06/21 02:31:54;;;;;;;4.88;1.48;;;;;;;12.12;69.39;95986.00;2057305;28;20073;-62
2022/06/21 02:32:56;;;;;;;5.13;1.42;;;;;;;12.22;69.26;95988.97;2057287;28;20043;-62
2022/06/21 02:34:00;;;;;;;2.92;1.15;;;;;;;12.19;69.20;95990.88;2050065;28;20047;-62
2022/06/21 02:35:15;;;;;;;3.13;1.30;;;;;;;12.21;69.01;95989.03;2049608;29;20051;-64
2022/06/21 02:36:19;;;;;;;4.03;1.63;;;;;;;12.20;69.36;95987.38;2057250;28;20555;-63
2022/06/21 02:37:21;;;;;;;2.30;1.30;;;;;;;12.14;70.24;95976.34;2034644;29;20056;-64
2022/06/21 02:38:25;;;;;;;3.42;1.05;;;;;;;12.07;71.00;95984.56;2033668;29;20059;-62
2022/06/21 02:39:28;;;;;;;3.65;1.73;;;;;;;12.05;71.10;95982.03;2042669;28;20062;-62
2022/06/21 02:40:32;;;;;;;2.15;1.10;;;;;;;12.03;70.60;95981.31;2049370;28;20532;-63
2022/06/21 02:41:37;;;;;;;5.47;1.77;;;;;;;12.00;70.51;95984.06;2050592;28;20055;-63
2022/06/21 02:42:39;;;;;;;2.63;1.30;;;;;;;11.99;70.44;95981.53;2050119;28;20066;-63
2022/06/21 02:43:43;;;;;;;3.20;1.30;;;;;;;12.05;70.71;95983.81;2041739;29;20055;-61
2022/06/21 02:44:51;;;;;;;4.43;1.40;;;;;;;12.00;70.20;95980.59;2042485;28;20066;-62
2022/06/21 02:46:02;;;;;;;2.17;1.20;;;;;;;12.06;69.82;95983.75;2049843;29;20047;-62
2022/06/21 02:47:09;;;;;;;2.67;1.20;;;;;;;12.12;70.38;95982.56;2036566;29;20052;-65
2022/06/21 02:48:12;;;;;;;4.10;1.70;;;;;;;12.07;70.43;95987.16;2033194;29;20059;-62
2022/06/21 02:49:23;;;;;;;4.03;1.75;;;;;;;12.03;70.00;95981.31;2034927;28;20052;-61
2022/06/21 02:50:38;;;;;;;4.10;1.35;;;;;;;12.03;69.71;95990.84;2060413;28;20054;-62
2022/06/21 02:51:43;;;;;;;2.72;1.65;;;;;;;12.04;69.73;95985.56;2057427;28;20676;-64
2022/06/21 02:52:44;;;;;;;2.53;1.73;;;;;;;12.08;69.72;95987.09;2051924;28;20050;-62
2022/06/21 02:53:52;;;;;;;4.50;1.83;;;;;;;12.10;69.96;95987.84;2057732;28;20061;-63
2022/06/21 02:55:33;;;;;;;6.13;2.00;;;;;;;12.19;69.32;95994.34;2064858;28;20041;-61
2022/06/21 02:57:00;;;;;;;3.28;1.70;;;;;;;12.12;70.64;95995.59;2041288;29;20094;-64
2022/06/21 02:58:12;;;;;;;3.42;1.70;;;;;;;12.15;69.55;95987.59;2047209;29;20047;-61
2022/06/21 02:59:13;;;;;;;3.55;1.80;;;;;;;12.11;69.95;95994.75;2042833;29;20107;-59
2022/06/21 03:00:17;;;;;;;5.72;1.80;;;;;;;12.04;69.71;95993.38;2033741;29;20518;-63
2022/06/21 03:01:21;;;;;;;2.17;1.70;;;;;;;11.99;69.86;95986.75;2049795;28;20076;-63
2022/06/21 03:02:24;;;;;;;4.03;1.90;;;;;;;12.02;69.50;95991.78;2041810;29;20051;-65
2022/06/21 03:03:27;;;;;;;3.30;2.13;;;;;;;12.02;69.21;95989.19;2042903;28;20450;-63
2022/06/21 03:04:37;;;;;;;3.15;2.00;;;;;;;11.97;69.61;95994.63;2065277;28;20563;-64
2022/06/21 03:05:38;;;;;;;4.88;1.80;;;;;;;11.99;69.50;95995.38;2049376;29;20047;-63
2022/06/21 03:06:40;;;;;;;7.07;1.85;;;;;;;12.04;69.48;95993.38;2041541;29;20043;-61
2022/06/21 03:07:42;;;;;;;3.20;2.00;;;;;;;12.01;69.36;95995.31;2041596;28;20051;-64
2022/06/21 03:08:50;;;;;;;4.20;2.22;;;;;;;12.02;69.36;95997.81;2057272;28;20071;-62
2022/06/21 03:09:52;;;;;;;4.57;1.85;;;;;;;11.99;69.71;95995.38;2041470;29;20425;-62
2022/06/21 03:10:53;;;;;;;3.40;2.15;;;;;;;11.98;69.25;96001.53;2034161;29;20044;-61
2022/06/21 03:11:58;;;;;;;4.50;2.40;;;;;;;11.99;68.80;95998.00;2041474;29;20048;-65
2022/06/21 03:13:02;;;;;;;4.72;2.30;;;;;;;12.01;69.40;96003.13;2042717;28;20067;-62
2022/06/21 03:14:05;;;;;;;3.60;2.30;;;;;;;12.06;68.06;96003.72;2050451;28;20047;-63
2022/06/21 03:15:09;;;;;;;3.30;2.25;;;;;;;11.99;68.40;95998.00;2049892;28;20106;-63
2022/06/21 03:16:13;;;;;;;4.43;2.40;;;;;;;12.00;68.50;96001.44;2050167;28;20065;-62
2022/06/21 03:17:16;;;;;;;4.57;2.55;;;;;;;11.98;68.01;96009.34;2049547;29;20517;-61
2022/06/21 03:18:19;;;;;;;4.80;2.38;;;;;;;11.99;67.97;96007.56;2041613;29;20433;-62
2022/06/21 03:19:23;;;;;;;4.80;2.80;;;;;;;12.04;68.01;96011.59;2042126;28;20055;-62
2022/06/21 03:20:25;;;;;;;5.90;2.80;;;;;;;12.02;67.41;96013.44;2049388;28;20042;-65
2022/06/21 03:21:29;;;;;;;6.80;3.00;;;;;;;12.03;67.90;96012.53;2048778;28;20058;-63
2022/06/21 03:22:32;;;;;;;6.68;2.38;;;;;;;12.06;68.25;96011.53;2049413;28;20449;-62
2022/06/21 03:23:33;;;;;;;4.68;2.30;;;;;;;12.05;67.73;96015.88;2057234;28;20046;-64
2022/06/21 03:24:34;;;;;;;4.32;2.70;;;;;;;12.03;67.78;95999.53;2056729;28;20043;-62
2022/06/21 03:25:41;;;;;;;4.35;2.60;;;;;;;12.10;67.43;96011.25;2057041;28;20059;-62
2022/06/21 03:26:42;;;;;;;5.68;2.60;;;;;;;12.14;66.38;95997.19;2051303;28;20043;-62
2022/06/21 03:27:54;;;;;;;4.88;2.70;;;;;;;12.07;66.80;96003.63;2042012;29;20048;-63
2022/06/21 03:28:55;;;;;;;5.38;2.72;;;;;;;12.04;66.78;95998.59;2045498;28;20048;-65
2022/06/21 03:29:57;;;;;;;3.55;2.33;;;;;;;12.02;67.54;96000.41;2048520;28;20051;-61
2022/06/21 03:31:06;;;;;;;6.38;2.80;;;;;;;12.12;67.01;96004.22;2049097;28;20054;-62
2022/06/21 03:32:08;;;;;;;4.10;2.40;;;;;;;12.05;66.75;96004.63;2049953;28;20047;-63
2022/06/21 03:33:10;;;;;;;3.90;2.67;;;;;;;12.00;67.72;96007.50;2048981;28;20051;-61
2022/06/21 03:34:15;;;;;;;4.25;2.63;;;;;;;11.96;67.83;96008.56;2057128;28;20062;-61
2022/06/21 03:35:16;;;;;;;4.43;2.50;;;;;;;11.94;67.39;96007.78;2057520;28;20249;-62
2022/06/21 03:36:19;;;;;;;3.90;2.33;;;;;;;11.94;67.53;96002.59;2057060;28;20047;-66
2022/06/21 03:37:20;;;;;;;4.60;2.42;;;;;;;11.91;68.26;96006.19;2041600;29;20054;-62
2022/06/21 03:38:23;;;;;;;5.18;2.40;;;;;;;12.00;68.20;96006.63;2033491;28;20044;-63
2022/06/21 03:42:06;;;;;;;3.65;2.85;;;;;;;11.85;69.40;96006.50;2062401;28;20050;-62
2022/06/21 03:43:13;;;;;;;4.00;2.70;;;;;;;11.89;69.03;96007.19;2040965;29;20051;-66
2022/06/21 03:44:18;;;;;;;4.28;2.50;;;;;;;11.93;68.05;96008.72;2043390;28;20525;-62
2022/06/21 03:45:25;;;;;;;4.97;2.67;;;;;;;12.02;67.91;96008.22;2048852;28;20063;-63
2022/06/21 03:46:32;;;;;;;4.32;2.70;;;;;;;11.98;68.01;96014.53;2057805;28;20496;-63
2022/06/21 03:47:37;;;;;;;4.47;2.60;;;;;;;11.94;67.72;96010.41;2057572;28;20054;-62
2022/06/21 03:48:45;;;;;;;5.57;3.25;;;;;;;11.98;68.87;96008.50;2049389;28;20054;-63
2022/06/21 03:50:09;;;;;;;5.88;2.83;;;;;;;11.97;68.33;96009.41;2058873;28;20524;-62
2022/06/21 03:51:13;;;;;;;3.90;2.65;;;;;;;11.86;69.02;95996.94;2056447;28;20050;-65
2022/06/21 03:52:41;;;;;;;5.28;2.88;;;;;;;11.91;68.23;96001.00;2041934;28;20064;-63
2022/06/21 03:53:43;;;;;;;4.15;2.63;;;;;;;11.93;69.22;95998.31;2055611;28;20038;-63
2022/06/21 03:54:45;;;;;;;5.07;2.53;;;;;;;11.86;68.59;95991.75;2064894;28;20050;-65
2022/06/21 03:56:09;;;;;;;5.35;2.97;;;;;;;11.86;68.57;95994.34;2064920;28;20504;-63
2022/06/21 03:57:22;;;;;;;5.72;2.90;;;;;;;11.85;68.69;95992.66;2060113;28;20050;-64
2022/06/21 03:59:01;;;;;;;6.80;2.95;;;;;;;11.90;68.08;95995.88;2058654;28;20066;-62
2022/06/21 04:00:03;;;;;;;4.25;2.47;;;;;;;11.91;67.99;95992.34;2061422;28;20038;-63
2022/06/21 04:01:07;;;;;;;4.95;2.35;;;;;;;11.94;68.40;95991.34;2057452;28;20042;-62
2022/06/21 04:02:15;;;;;;;4.68;2.78;;;;;;;11.97;68.90;95989.41;2048744;29;20054;-62
2022/06/21 04:03:21;;;;;;;6.18;3.13;;;;;;;11.99;68.63;95994.56;2043371;28;20051;-64
2022/06/21 04:04:29;;;;;;;4.28;2.25;;;;;;;12.02;67.61;95987.41;2049754;28;20055;-62
2022/06/21 04:05:35;;;;;;;4.95;2.45;;;;;;;12.05;67.65;95989.00;2064634;28;20190;-61
2022/06/21 04:06:41;;;;;;;6.35;3.00;;;;;;;12.06;68.48;95981.13;2057727;28;20047;-62
2022/06/21 04:07:42;;;;;;;5.20;2.30;;;;;;;12.08;67.86;95981.91;2072762;28;20050;-61
2022/06/21 04:08:47;;;;;;;5.53;2.35;;;;;;;12.03;67.75;95983.91;2056671;28;20039;-63
2022/06/21 04:09:55;;;;;;;4.10;2.28;;;;;;;12.02;67.29;95973.56;2049829;28;20055;-63
2022/06/21 04:11:06;;;;;;;3.85;2.45;;;;;;;11.98;68.46;95975.50;2050621;28;20058;-62
2022/06/21 04:12:16;;;;;;;3.78;2.63;;;;;;;12.00;68.72;95971.06;2058182;28;20062;-63
2022/06/21 04:13:28;;;;;;;4.40;2.20;;;;;;;12.11;67.21;95970.50;2057800;28;20058;-66
2022/06/21 04:14:32;;;;;;;5.35;2.17;;;;;;;12.06;66.93;95970.72;2056719;28;20050;-62
2022/06/21 04:15:37;;;;;;;3.53;2.05;;;;;;;12.10;67.66;95972.22;2058578;28;20049;-64
2022/06/21 04:16:44;;;;;;;4.32;2.08;;;;;;;12.20;67.18;95975.19;2064732;28;20523;-63
2022/06/21 04:18:02;;;;;;;4.57;2.20;;;;;;;12.14;67.16;95970.31;2057162;28;20054;-63
2022/06/21 04:19:23;;;;;;;3.00;1.90;;;;;;;12.23;67.18;95976.78;2053665;28;20568;-65
2022/06/21 04:20:48;;;;;;;3.13;1.95;;;;;;;12.21;67.26;95966.44;2051011;28;20051;-63
2022/06/21 04:21:52;;;;;;;3.28;2.10;;;;;;;12.19;66.78;95963.09;2055580;28;20046;-66
2022/06/21 04:23:08;;;;;;;3.13;2.00;;;;;;;12.18;67.48;95968.38;2048940;28;20082;-62
2022/06/21 04:24:15;;;;;;;3.20;1.92;;;;;;;12.18;67.27;95968.38;2060791;28;20054;-64
2022/06/21 04:25:36;;;;;;;2.88;2.05;;;;;;;12.26;67.69;95969.63;2065082;28;20050;-63
2022/06/21 04:26:40;;;;;;;3.10;1.90;;;;;;;12.24;67.46;95965.44;2059461;28;20047;-63
2022/06/21 04:28:02;;;;;;;4.30;2.13;;;;;;;12.26;66.59;95976.63;2064557;28;20530;-63
2022/06/21 04:29:06;;;;;;;3.08;1.73;;;;;;;12.22;66.68;95970.75;2048638;29;20047;-62
2022/06/21 04:30:11;;;;;;;4.00;2.05;;;;;;;12.30;66.93;95968.56;2033931;28;20060;-63
2022/06/21 04:31:35;;;;;;;5.55;2.25;;;;;;;12.38;66.40;95973.34;2049797;28;20047;-64
2022/06/21 04:32:48;;;;;;;3.33;1.90;;;;;;;12.44;65.75;95977.38;2051847;28;20130;-63
2022/06/21 04:33:51;;;;;;;4.18;1.80;;;;;;;12.46;66.12;95968.56;2051125;28;20035;-62
2022/06/21 04:35:14;;;;;;;3.72;1.88;;;;;;;12.58;65.94;95978.28;2064256;28;20049;-65
2022/06/21 04:36:35;;;;;;;2.20;1.40;;;;;;;12.60;66.52;95975.59;2064936;28;20046;-64
2022/06/21 04:37:59;;;;;;;5.70;2.10;;;;;;;12.59;65.79;95976.53;2055998;28;20050;-62
2022/06/21 04:39:04;;;;;;;3.92;1.55;;;;;;;12.73;65.48;95980.97;2059914;28;20519;-62
2022/06/21 04:40:17;;;;;;;4.70;1.70;;;;;;;12.72;64.13;95974.94;2064502;28;20039;-62
2022/06/21 04:41:22;;;;;;;6.00;1.90;;;;;;;12.80;63.20;95974.47;2049333;28;20059;-63
2022/06/21 04:42:43;;;;;;;3.65;1.65;;;;;;;12.76;64.00;95970.38;2049117;28;20054;-62
2022/06/21 04:43:49;;;;;;;3.13;1.40;;;;;;;12.84;63.69;95975.16;2051283;28;20047;-63
2022/06/21 04:44:55;;;;;;;4.28;1.80;;;;;;;12.87;63.79;95972.38;2050334;28;20054;-62
2022/06/21 04:46:00;;;;;;;3.15;1.50;;;;;;;12.91;63.31;95979.94;2049680;28;20047;-62
2022/06/21 04:47:15;;;;;;;3.28;1.50;;;;;;;12.97;63.53;95984.81;2049851;28;20058;-62
2022/06/21 04:48:34;;;;;;;4.90;1.80;;;;;;;12.92;63.37;95986.00;2063553;28;20559;-63
2022/06/21 04:49:39;;;;;;;4.50;1.50;;;;;;;13.08;63.58;95985.97;2064399;28;20051;-62
2022/06/21 04:50:44;;;;;;;5.03;1.50;;;;;;;13.06;63.15;95993.03;2049142;28;20058;-65
2022/06/21 04:51:53;;;;;;;4.00;1.60;;;;;;;13.05;62.99;95991.38;2049555;28;20453;-62
2022/06/21 04:53:00;;;;;;;6.32;1.70;;;;;;;13.10;63.00;95986.72;2057598;28;20043;-63
2022/06/21 04:54:04;;;;;;;3.53;1.55;;;;;;;13.32;63.26;95988.97;2049594;28;20521;-63
2022/06/21 04:55:12;;;;;;;4.03;1.33;;;;;;;13.31;63.49;95988.13;2048974;28;20051;-62
2022/06/21 04:56:23;;;;;;;3.10;1.42;;;;;;;13.21;62.70;95984.34;2049281;28;20051;-62
2022/06/21 04:57:26;;;;;;;3.67;1.45;;;;;;;13.32;62.76;95986.34;2050268;28;20553;-61
2022/06/21 04:58:29;;;;;;;2.28;1.33;;;;;;;13.39;62.17;95983.31;2048661;28;20077;-62
2022/06/21 04:59:35;;;;;;;3.92;1.75;;;;;;;13.37;62.15;95986.94;2056192;28;20055;-62
2022/06/21 05:00:36;;;;;;;3.67;1.63;;;;;;;13.42;62.60;95984.88;2047782;29;20051;-62
2022/06/21 05:02:41;;;;;;;3.58;1.65;;;;;;;13.53;62.01;95981.66;2056582;28;20053;-62
2022/06/21 05:03:42;;;;;;;3.25;1.52;;;;;;;13.63;62.02;95975.78;2048329;28;20062;-63
2022/06/21 05:04:43;;;;;;;3.10;1.55;;;;;;;13.57;61.65;95985.75;2056704;28;20046;-62
2022/06/21 05:05:44;;;;;;;2.33;1.38;;;;;;;13.65;61.83;95976.53;2047861;28;20043;-62
2022/06/21 05:06:45;;;;;;;4.50;1.60;;;;;;;13.44;61.83;95985.63;2056572;28;20056;-65
2022/06/21 05:07:49;;;;;;;4.22;1.60;;;;;;;13.42;61.29;95985.72;2048285;29;20043;-62
2022/06/21 05:08:50;;;;;;;3.80;1.40;;;;;;;13.55;60.47;95985.84;2033615;29;20055;-62
2022/06/21 05:09:53;;;;;;;2.95;1.35;;;;;;;13.72;60.19;95981.41;2041043;28;20580;-64
2022/06/21 05:10:56;;;;;;;2.42;1.48;;;;;;;13.70;60.42;95978.88;2055686;28;20046;-62
2022/06/21 05:12:05;;;;;;;2.75;1.50;;;;;;;13.67;60.23;95977.28;2056028;28;20493;-61
2022/06/21 05:13:12;;;;;;;3.92;1.77;;;;;;;13.62;60.88;95974.09;2041736;29;20062;-63
2022/06/21 05:14:32;;;;;;;2.55;1.60;;;;;;;13.58;61.54;95972.63;2041850;28;20044;-60
2022/06/21 05:15:35;;;;;;;5.82;1.58;;;;;;;13.57;60.64;95972.69;2050881;28;20528;-61
2022/06/21 05:16:39;;;;;;;4.28;1.65;;;;;;;13.52;60.21;95974.72;2048399;28;20513;-62